Anna Maria, Florida
Current Conditions -  °F | °C
As of 10:53 AM on Friday 19 Dec 2014 (Local Time) from KSRQ Reporting Station
Clear Clear  
Wind Chill: 66°   Ceiling: Unl
Heat Index: 66°   Visibility: 10mi
Dew Point: 50°   Wind: 7mph
Humidity: 56%   Direction: 100°E
Pressure: 30.11"   Gusts: NA
Location:  27.53°N, 82.73°W
Report Text: KSRQ 191553Z 10006KT 10SM CLR 19/10 A3011 RMK AO2 SLP197 T01890100
Loading
Personal Weather Stations






























Interactive Weather Map New forecast layout! Learn more

10-Day Weather Forecast

Advertisements
Track Severe Weather on mobile